Pagina principale
METAR-TAF:

METAR-TAF

Aeroporti :

Aeroporto di Colonia-Bonn

Colonia, Germania

latitudine: 50-52N, longitudine: 007-10E, altezza: 91 m

Osservazione

Il bollettino è stato emesso 32 minuti fa, alle 05:50 UTC
Vento 5 kt da nord, variando fra nord/nord-ovest e nord-est
Temperature 18°C
Umidità 73%
Pressione 1027 hPa
Visibilità 10 km o più
Poco nuvoloso ad un'altezza di 1500 ft

METAR: EDDK 270550Z 01005KT 340V040 9999 FEW015 18/13 Q1027 NOSIG

Ora: 08:22 (06:22 UTC)

Previsione

Il bollettino è stato emesso 1 ora e 22 minuti fa, alle 05:00 UTC
Previsione valida dal 27 alle 06 UTC al 28 alle 12 UTC
Vento 8 kt da nord
Visibilità 10 km o più
nessuna nube inferiore a 1500 m e nessun cumulonembo
Probabilità 30% :
Temporaneamente
dal 27 alle 06 UTC al 27 alle 08 UTC
Nuvoloso ad un'altezza di 1400 ft

TAF: EDDK 270500Z 2706/2812 36008KT CAVOK PROB30 TEMPO 2706/2708 BKN014

Osservazioni e previsioni meteorologiche di più di 4000 aeroporti (messaggi METAR e TAF).

Le stazioni disponibili sono rappresentate dai dischi gialli e rossi sulla carta.

Puntare il mouse per vedere il nome della stazione.

Clicca sopra per visualizzare le osservazioni e previsioni meteorologiche.

Per cambiare la mappa : fare clic sui pulsanti verdi con una croce nera per ingrandire, il pulsante verde con un trattino per diminuire, o sulla freccia verde per le mappe adiacenti.


METAR-TAF: